sensor_id;sensor_type;location;lat;lon;timestamp;temperature;humidity
25450;DHT22;13371;52.080;5.624;2022-10-16T00:00:31;14.40;99.60
25450;DHT22;13371;52.080;5.624;2022-10-16T00:02:57;14.30;99.80
25450;DHT22;13371;52.080;5.624;2022-10-16T00:05:23;14.40;99.80
25450;DHT22;13371;52.080;5.624;2022-10-16T00:07:48;14.20;99.90
25450;DHT22;13371;52.080;5.624;2022-10-16T00:10:17;14.50;99.60
25450;DHT22;13371;52.080;5.624;2022-10-16T00:12:42;14.40;99.40
25450;DHT22;13371;52.080;5.624;2022-10-16T00:15:08;14.40;99.50
25450;DHT22;13371;52.080;5.624;2022-10-16T00:17:34;14.50;99.50
25450;DHT22;13371;52.080;5.624;2022-10-16T00:20:00;14.60;99.10
25450;DHT22;13371;52.080;5.624;2022-10-16T00:22:25;14.70;99.00
25450;DHT22;13371;52.080;5.624;2022-10-16T00:24:51;14.80;98.70
25450;DHT22;13371;52.080;5.624;2022-10-16T00:27:17;14.80;99.10
25450;DHT22;13371;52.080;5.624;2022-10-16T00:29:43;14.60;99.00
25450;DHT22;13371;52.080;5.624;2022-10-16T00:32:11;14.50;99.30
25450;DHT22;13371;52.080;5.624;2022-10-16T00:34:37;14.60;99.20
25450;DHT22;13371;52.080;5.624;2022-10-16T00:37:02;14.50;99.30
25450;DHT22;13371;52.080;5.624;2022-10-16T00:39:28;14.50;99.20
25450;DHT22;13371;52.080;5.624;2022-10-16T00:41:53;14.40;99.50
25450;DHT22;13371;52.080;5.624;2022-10-16T00:44:49;14.30;99.90
25450;DHT22;13371;52.080;5.624;2022-10-16T00:47:36;14.40;99.90
25450;DHT22;13371;52.080;5.624;2022-10-16T00:52:45;14.30;99.90
25450;DHT22;13371;52.080;5.624;2022-10-16T00:55:11;14.20;99.90
25450;DHT22;13371;52.080;5.624;2022-10-16T00:57:38;14.20;99.90
25450;DHT22;13371;52.080;5.624;2022-10-16T01:00:08;13.90;99.90
25450;DHT22;13371;52.080;5.624;2022-10-16T01:02:34;13.90;99.90
25450;DHT22;13371;52.080;5.624;2022-10-16T01:05:00;13.90;99.90
25450;DHT22;13371;52.080;5.624;2022-10-16T01:10:23;13.90;99.90
25450;DHT22;13371;52.080;5.624;2022-10-16T01:13:09;14.10;99.90
25450;DHT22;13371;52.080;5.624;2022-10-16T01:16:08;14.30;99.90
25450;DHT22;13371;52.080;5.624;2022-10-16T01:18:52;14.30;99.90
25450;DHT22;13371;52.080;5.624;2022-10-16T01:21:26;14.50;99.90
25450;DHT22;13371;52.080;5.624;2022-10-16T01:24:11;14.70;99.90
25450;DHT22;13371;52.080;5.624;2022-10-16T01:26:57;14.40;99.90
25450;DHT22;13371;52.080;5.624;2022-10-16T01:29:28;14.40;99.90
25450;DHT22;13371;52.080;5.624;2022-10-16T01:31:59;14.40;99.90
25450;DHT22;13371;52.080;5.624;2022-10-16T01:34:33;14.60;99.90
25450;DHT22;13371;52.080;5.624;2022-10-16T01:37:09;14.70;99.90
25450;DHT22;13371;52.080;5.624;2022-10-16T01:39:39;14.80;99.80
25450;DHT22;13371;52.080;5.624;2022-10-16T01:42:09;14.90;99.60
25450;DHT22;13371;52.080;5.624;2022-10-16T01:44:37;14.80;99.90
25450;DHT22;13371;52.080;5.624;2022-10-16T01:47:04;14.90;99.70
25450;DHT22;13371;52.080;5.624;2022-10-16T01:49:33;14.90;99.90
25450;DHT22;13371;52.080;5.624;2022-10-16T01:52:04;14.90;99.90
25450;DHT22;13371;52.080;5.624;2022-10-16T01:54:32;14.80;99.90
25450;DHT22;13371;52.080;5.624;2022-10-16T01:56:59;14.80;99.90
25450;DHT22;13371;52.080;5.624;2022-10-16T01:59:26;14.80;99.90
25450;DHT22;13371;52.080;5.624;2022-10-16T02:01:55;14.90;99.90
25450;DHT22;13371;52.080;5.624;2022-10-16T02:04:28;14.80;99.90
25450;DHT22;13371;52.080;5.624;2022-10-16T02:06:54;14.80;99.90
25450;DHT22;13371;52.080;5.624;2022-10-16T02:09:21;14.70;99.90
25450;DHT22;13371;52.080;5.624;2022-10-16T02:11:46;15.00;99.90
25450;DHT22;13371;52.080;5.624;2022-10-16T02:14:14;14.90;99.90
25450;DHT22;13371;52.080;5.624;2022-10-16T02:16:45;15.20;99.90
25450;DHT22;13371;52.080;5.624;2022-10-16T02:19:13;15.00;99.70
25450;DHT22;13371;52.080;5.624;2022-10-16T02:21:54;15.20;99.80
25450;DHT22;13371;52.080;5.624;2022-10-16T02:24:43;14.90;99.90
25450;DHT22;13371;52.080;5.624;2022-10-16T02:27:48;15.10;99.90
25450;DHT22;13371;52.080;5.624;2022-10-16T02:32:51;15.60;99.10
25450;DHT22;13371;52.080;5.624;2022-10-16T02:35:19;15.50;99.10
25450;DHT22;13371;52.080;5.624;2022-10-16T02:37:47;15.40;99.40
25450;DHT22;13371;52.080;5.624;2022-10-16T02:40:14;15.30;99.30
25450;DHT22;13371;52.080;5.624;2022-10-16T02:42:41;15.00;99.90
25450;DHT22;13371;52.080;5.624;2022-10-16T02:45:08;14.90;99.90
25450;DHT22;13371;52.080;5.624;2022-10-16T02:47:35;14.70;99.90
25450;DHT22;13371;52.080;5.624;2022-10-16T02:50:00;14.80;99.90
25450;DHT22;13371;52.080;5.624;2022-10-16T02:52:26;14.90;99.90
25450;DHT22;13371;52.080;5.624;2022-10-16T02:54:52;14.90;99.90
25450;DHT22;13371;52.080;5.624;2022-10-16T02:57:18;15.10;99.90
25450;DHT22;13371;52.080;5.624;2022-10-16T02:59:44;15.10;99.90
25450;DHT22;13371;52.080;5.624;2022-10-16T03:02:10;15.10;99.90
25450;DHT22;13371;52.080;5.624;2022-10-16T03:04:36;15.10;99.90
25450;DHT22;13371;52.080;5.624;2022-10-16T03:07:02;15.00;99.90
25450;DHT22;13371;52.080;5.624;2022-10-16T03:09:28;15.10;99.90
25450;DHT22;13371;52.080;5.624;2022-10-16T03:11:53;15.00;99.90
25450;DHT22;13371;52.080;5.624;2022-10-16T03:14:19;15.00;99.90
25450;DHT22;13371;52.080;5.624;2022-10-16T03:16:44;14.70;99.90
25450;DHT22;13371;52.080;5.624;2022-10-16T03:19:10;14.80;99.90
25450;DHT22;13371;52.080;5.624;2022-10-16T03:21:36;14.90;99.90
25450;DHT22;13371;52.080;5.624;2022-10-16T03:24:01;15.00;99.90
25450;DHT22;13371;52.080;5.624;2022-10-16T03:26:27;15.00;99.90
25450;DHT22;13371;52.080;5.624;2022-10-16T03:28:52;15.20;99.90
25450;DHT22;13371;52.080;5.624;2022-10-16T03:31:18;14.90;99.90
25450;DHT22;13371;52.080;5.624;2022-10-16T03:33:43;14.80;99.90
25450;DHT22;13371;52.080;5.624;2022-10-16T03:36:09;14.70;99.90
25450;DHT22;13371;52.080;5.624;2022-10-16T03:38:35;14.50;99.90
25450;DHT22;13371;52.080;5.624;2022-10-16T03:41:00;14.30;99.90
25450;DHT22;13371;52.080;5.624;2022-10-16T03:43:26;14.40;99.90
25450;DHT22;13371;52.080;5.624;2022-10-16T03:45:51;14.70;99.90
25450;DHT22;13371;52.080;5.624;2022-10-16T03:48:18;14.50;99.90
25450;DHT22;13371;52.080;5.624;2022-10-16T03:50:44;14.60;99.90
25450;DHT22;13371;52.080;5.624;2022-10-16T03:53:10;14.50;99.90
25450;DHT22;13371;52.080;5.624;2022-10-16T03:55:35;14.60;99.90
25450;DHT22;13371;52.080;5.624;2022-10-16T03:58:01;14.60;99.90
25450;DHT22;13371;52.080;5.624;2022-10-16T04:00:27;14.50;99.90
25450;DHT22;13371;52.080;5.624;2022-10-16T04:02:52;14.60;99.90
25450;DHT22;13371;52.080;5.624;2022-10-16T04:05:18;14.80;99.90
25450;DHT22;13371;52.080;5.624;2022-10-16T04:07:43;14.80;99.90
25450;DHT22;13371;52.080;5.624;2022-10-16T04:10:09;14.60;99.90
25450;DHT22;13371;52.080;5.624;2022-10-16T04:12:35;14.80;99.90
25450;DHT22;13371;52.080;5.624;2022-10-16T04:15:00;14.80;99.90
25450;DHT22;13371;52.080;5.624;2022-10-16T04:17:26;15.00;99.90
25450;DHT22;13371;52.080;5.624;2022-10-16T04:19:52;15.00;99.90
25450;DHT22;13371;52.080;5.624;2022-10-16T04:22:17;14.90;99.90
25450;DHT22;13371;52.080;5.624;2022-10-16T04:24:43;15.00;99.90
25450;DHT22;13371;52.080;5.624;2022-10-16T04:27:08;15.10;99.80
25450;DHT22;13371;52.080;5.624;2022-10-16T04:29:34;14.70;99.90
25450;DHT22;13371;52.080;5.624;2022-10-16T04:31:59;14.30;99.90
25450;DHT22;13371;52.080;5.624;2022-10-16T04:34:25;14.80;99.90
25450;DHT22;13371;52.080;5.624;2022-10-16T04:36:50;14.70;99.90
25450;DHT22;13371;52.080;5.624;2022-10-16T04:39:16;14.80;99.90
25450;DHT22;13371;52.080;5.624;2022-10-16T04:41:42;14.60;99.90
25450;DHT22;13371;52.080;5.624;2022-10-16T04:44:07;14.70;99.90
25450;DHT22;13371;52.080;5.624;2022-10-16T04:46:33;14.70;99.90
25450;DHT22;13371;52.080;5.624;2022-10-16T04:48:59;14.60;99.90
25450;DHT22;13371;52.080;5.624;2022-10-16T04:51:24;14.60;99.90
25450;DHT22;13371;52.080;5.624;2022-10-16T04:53:51;14.40;99.90
25450;DHT22;13371;52.080;5.624;2022-10-16T04:56:16;14.30;99.90
25450;DHT22;13371;52.080;5.624;2022-10-16T04:58:42;14.20;99.90
25450;DHT22;13371;52.080;5.624;2022-10-16T05:01:08;14.20;99.90
25450;DHT22;13371;52.080;5.624;2022-10-16T05:03:33;14.10;99.90
25450;DHT22;13371;52.080;5.624;2022-10-16T05:05:59;14.30;99.90
25450;DHT22;13371;52.080;5.624;2022-10-16T05:08:24;14.50;99.90
25450;DHT22;13371;52.080;5.624;2022-10-16T05:10:50;14.50;99.90
25450;DHT22;13371;52.080;5.624;2022-10-16T05:13:15;14.70;99.90
25450;DHT22;13371;52.080;5.624;2022-10-16T05:15:41;14.80;99.90
25450;DHT22;13371;52.080;5.624;2022-10-16T05:18:06;14.70;99.90
25450;DHT22;13371;52.080;5.624;2022-10-16T05:20:32;14.60;99.90
25450;DHT22;13371;52.080;5.624;2022-10-16T05:22:57;14.50;99.90
25450;DHT22;13371;52.080;5.624;2022-10-16T05:25:24;14.50;99.90
25450;DHT22;13371;52.080;5.624;2022-10-16T05:27:49;14.50;99.90
25450;DHT22;13371;52.080;5.624;2022-10-16T05:30:16;14.50;99.90
25450;DHT22;13371;52.080;5.624;2022-10-16T05:32:46;14.30;99.90
25450;DHT22;13371;52.080;5.624;2022-10-16T05:35:12;14.10;99.90
25450;DHT22;13371;52.080;5.624;2022-10-16T05:37:38;14.20;99.90
25450;DHT22;13371;52.080;5.624;2022-10-16T05:40:04;14.40;99.90
25450;DHT22;13371;52.080;5.624;2022-10-16T05:42:30;14.50;99.90
25450;DHT22;13371;52.080;5.624;2022-10-16T05:44:55;14.50;99.90
25450;DHT22;13371;52.080;5.624;2022-10-16T05:47:21;14.50;99.90
25450;DHT22;13371;52.080;5.624;2022-10-16T05:49:47;14.20;99.90
25450;DHT22;13371;52.080;5.624;2022-10-16T05:52:12;14.50;99.90
25450;DHT22;13371;52.080;5.624;2022-10-16T05:54:38;14.60;99.90
25450;DHT22;13371;52.080;5.624;2022-10-16T05:57:03;14.60;99.90
25450;DHT22;13371;52.080;5.624;2022-10-16T05:59:31;14.70;99.90
25450;DHT22;13371;52.080;5.624;2022-10-16T06:01:56;14.90;99.90
25450;DHT22;13371;52.080;5.624;2022-10-16T06:04:22;14.60;99.90
25450;DHT22;13371;52.080;5.624;2022-10-16T06:06:48;14.60;99.90
25450;DHT22;13371;52.080;5.624;2022-10-16T06:09:13;14.70;99.90
25450;DHT22;13371;52.080;5.624;2022-10-16T06:11:39;14.90;99.90
25450;DHT22;13371;52.080;5.624;2022-10-16T06:14:04;14.80;99.90
25450;DHT22;13371;52.080;5.624;2022-10-16T06:16:33;14.60;99.90
25450;DHT22;13371;52.080;5.624;2022-10-16T06:18:58;14.60;99.90
25450;DHT22;13371;52.080;5.624;2022-10-16T06:21:26;14.80;99.90
25450;DHT22;13371;52.080;5.624;2022-10-16T06:23:52;14.60;99.90
25450;DHT22;13371;52.080;5.624;2022-10-16T06:26:19;14.70;99.90
25450;DHT22;13371;52.080;5.624;2022-10-16T06:28:46;14.60;99.90
25450;DHT22;13371;52.080;5.624;2022-10-16T06:31:12;14.80;99.90
25450;DHT22;13371;52.080;5.624;2022-10-16T06:33:39;14.80;99.90
25450;DHT22;13371;52.080;5.624;2022-10-16T06:36:14;14.50;99.90
25450;DHT22;13371;52.080;5.624;2022-10-16T06:38:41;14.50;99.90
25450;DHT22;13371;52.080;5.624;2022-10-16T06:41:08;14.80;99.90
25450;DHT22;13371;52.080;5.624;2022-10-16T06:43:34;14.80;99.90
25450;DHT22;13371;52.080;5.624;2022-10-16T06:46:04;14.80;99.90
25450;DHT22;13371;52.080;5.624;2022-10-16T06:48:30;14.60;99.90
25450;DHT22;13371;52.080;5.624;2022-10-16T06:51:15;15.00;99.90
25450;DHT22;13371;52.080;5.624;2022-10-16T06:53:43;14.80;99.90
25450;DHT22;13371;52.080;5.624;2022-10-16T06:56:11;14.90;99.90
25450;DHT22;13371;52.080;5.624;2022-10-16T06:58:38;14.90;99.90
25450;DHT22;13371;52.080;5.624;2022-10-16T07:01:04;15.00;99.90
25450;DHT22;13371;52.080;5.624;2022-10-16T07:03:30;15.10;99.90
25450;DHT22;13371;52.080;5.624;2022-10-16T07:05:55;15.00;99.90
25450;DHT22;13371;52.080;5.624;2022-10-16T07:08:21;15.00;99.90
25450;DHT22;13371;52.080;5.624;2022-10-16T07:10:47;14.90;99.90
25450;DHT22;13371;52.080;5.624;2022-10-16T07:13:13;14.90;99.90
25450;DHT22;13371;52.080;5.624;2022-10-16T07:15:40;14.80;99.90
25450;DHT22;13371;52.080;5.624;2022-10-16T07:18:06;14.90;99.90
25450;DHT22;13371;52.080;5.624;2022-10-16T07:20:32;15.10;99.90
25450;DHT22;13371;52.080;5.624;2022-10-16T07:22:57;15.00;99.90
25450;DHT22;13371;52.080;5.624;2022-10-16T07:25:23;14.90;99.90
25450;DHT22;13371;52.080;5.624;2022-10-16T07:27:48;14.90;99.90
25450;DHT22;13371;52.080;5.624;2022-10-16T07:30:14;15.10;99.90
25450;DHT22;13371;52.080;5.624;2022-10-16T07:32:40;15.40;99.90
25450;DHT22;13371;52.080;5.624;2022-10-16T07:35:06;15.50;99.90
25450;DHT22;13371;52.080;5.624;2022-10-16T07:37:32;15.00;99.90
25450;DHT22;13371;52.080;5.624;2022-10-16T07:39:57;14.80;99.90
25450;DHT22;13371;52.080;5.624;2022-10-16T07:42:23;14.80;99.90
25450;DHT22;13371;52.080;5.624;2022-10-16T07:44:48;15.10;99.90
25450;DHT22;13371;52.080;5.624;2022-10-16T07:47:14;14.90;99.90
25450;DHT22;13371;52.080;5.624;2022-10-16T07:49:39;15.10;99.90
25450;DHT22;13371;52.080;5.624;2022-10-16T07:52:05;15.00;99.90
25450;DHT22;13371;52.080;5.624;2022-10-16T07:54:30;15.30;99.90
25450;DHT22;13371;52.080;5.624;2022-10-16T07:56:56;15.30;99.90
25450;DHT22;13371;52.080;5.624;2022-10-16T07:59:22;15.50;99.90
25450;DHT22;13371;52.080;5.624;2022-10-16T08:01:49;15.40;99.90
25450;DHT22;13371;52.080;5.624;2022-10-16T08:04:15;15.50;99.90
25450;DHT22;13371;52.080;5.624;2022-10-16T08:06:41;15.40;99.90
25450;DHT22;13371;52.080;5.624;2022-10-16T08:09:07;15.40;99.90
25450;DHT22;13371;52.080;5.624;2022-10-16T08:11:40;15.30;99.90
25450;DHT22;13371;52.080;5.624;2022-10-16T08:14:06;15.60;99.90
25450;DHT22;13371;52.080;5.624;2022-10-16T08:16:31;16.00;99.90
25450;DHT22;13371;52.080;5.624;2022-10-16T08:18:57;16.10;99.60
25450;DHT22;13371;52.080;5.624;2022-10-16T08:21:23;16.20;99.70
25450;DHT22;13371;52.080;5.624;2022-10-16T08:23:53;16.40;99.40
25450;DHT22;13371;52.080;5.624;2022-10-16T08:26:19;16.90;98.40
25450;DHT22;13371;52.080;5.624;2022-10-16T08:28:44;17.30;97.60
25450;DHT22;13371;52.080;5.624;2022-10-16T08:31:12;17.30;97.30
25450;DHT22;13371;52.080;5.624;2022-10-16T08:33:41;17.60;97.20
25450;DHT22;13371;52.080;5.624;2022-10-16T08:36:07;17.90;95.90
25450;DHT22;13371;52.080;5.624;2022-10-16T08:38:33;18.10;96.30
25450;DHT22;13371;52.080;5.624;2022-10-16T08:44:13;18.10;95.90
25450;DHT22;13371;52.080;5.624;2022-10-16T08:48:04;18.70;96.10
25450;DHT22;13371;52.080;5.624;2022-10-16T08:50:13;18.30;94.90
25450;DHT22;13371;52.080;5.624;2022-10-16T08:52:41;18.10;95.20
25450;DHT22;13371;52.080;5.624;2022-10-16T08:55:45;17.80;95.30
25450;DHT22;13371;52.080;5.624;2022-10-16T08:58:17;17.60;96.20
25450;DHT22;13371;52.080;5.624;2022-10-16T09:00:46;17.90;96.00
25450;DHT22;13371;52.080;5.624;2022-10-16T09:08:58;17.80;96.20
25450;DHT22;13371;52.080;5.624;2022-10-16T09:11:54;18.40;96.30
25450;DHT22;13371;52.080;5.624;2022-10-16T09:14:45;18.70;94.90
25450;DHT22;13371;52.080;5.624;2022-10-16T09:20:20;18.90;94.30
25450;DHT22;13371;52.080;5.624;2022-10-16T09:22:48;19.20;94.40
25450;DHT22;13371;52.080;5.624;2022-10-16T09:25:16;18.60;94.50
25450;DHT22;13371;52.080;5.624;2022-10-16T09:27:45;18.50;94.70
25450;DHT22;13371;52.080;5.624;2022-10-16T09:30:17;18.70;94.40
25450;DHT22;13371;52.080;5.624;2022-10-16T09:32:46;18.90;94.20
25450;DHT22;13371;52.080;5.624;2022-10-16T09:35:31;18.90;93.90
25450;DHT22;13371;52.080;5.624;2022-10-16T09:37:57;19.40;94.10
25450;DHT22;13371;52.080;5.624;2022-10-16T09:43:01;18.90;93.50
25450;DHT22;13371;52.080;5.624;2022-10-16T09:45:28;18.70;94.20
25450;DHT22;13371;52.080;5.624;2022-10-16T09:47:54;18.80;94.40
25450;DHT22;13371;52.080;5.624;2022-10-16T09:50:26;18.70;93.90
25450;DHT22;13371;52.080;5.624;2022-10-16T09:53:11;18.80;94.20
25450;DHT22;13371;52.080;5.624;2022-10-16T09:55:48;18.90;93.90
25450;DHT22;13371;52.080;5.624;2022-10-16T09:58:14;19.00;93.80
25450;DHT22;13371;52.080;5.624;2022-10-16T10:00:42;19.10;93.20
25450;DHT22;13371;52.080;5.624;2022-10-16T10:03:15;18.80;93.70
25450;DHT22;13371;52.080;5.624;2022-10-16T10:05:49;19.60;93.20
25450;DHT22;13371;52.080;5.624;2022-10-16T10:08:18;19.70;92.40
25450;DHT22;13371;52.080;5.624;2022-10-16T10:10:44;19.60;91.80
25450;DHT22;13371;52.080;5.624;2022-10-16T10:13:21;19.30;92.30
25450;DHT22;13371;52.080;5.624;2022-10-16T10:15:50;19.80;92.70
25450;DHT22;13371;52.080;5.624;2022-10-16T10:18:20;20.00;91.50
25450;DHT22;13371;52.080;5.624;2022-10-16T10:20:58;20.40;91.70
25450;DHT22;13371;52.080;5.624;2022-10-16T10:23:26;20.70;91.10
25450;DHT22;13371;52.080;5.624;2022-10-16T10:26:17;20.00;90.80
25450;DHT22;13371;52.080;5.624;2022-10-16T10:28:53;19.80;91.90
25450;DHT22;13371;52.080;5.624;2022-10-16T10:31:26;19.70;91.60
25450;DHT22;13371;52.080;5.624;2022-10-16T10:37:27;19.70;92.30
25450;DHT22;13371;52.080;5.624;2022-10-16T10:42:45;19.90;91.40
25450;DHT22;13371;52.080;5.624;2022-10-16T10:45:18;19.70;91.40
25450;DHT22;13371;52.080;5.624;2022-10-16T10:48:26;19.60;91.80
25450;DHT22;13371;52.080;5.624;2022-10-16T10:51:01;19.60;91.50
25450;DHT22;13371;52.080;5.624;2022-10-16T11:01:59;20.10;90.10
25450;DHT22;13371;52.080;5.624;2022-10-16T11:07:09;19.70;91.00
25450;DHT22;13371;52.080;5.624;2022-10-16T11:09:51;19.90;91.10
25450;DHT22;13371;52.080;5.624;2022-10-16T11:12:29;19.70;90.10
25450;DHT22;13371;52.080;5.624;2022-10-16T11:15:14;19.70;90.30
25450;DHT22;13371;52.080;5.624;2022-10-16T11:20:23;19.80;89.70
25450;DHT22;13371;52.080;5.624;2022-10-16T11:22:56;19.90;90.10
25450;DHT22;13371;52.080;5.624;2022-10-16T11:25:30;20.50;90.50
25450;DHT22;13371;52.080;5.624;2022-10-16T11:30:56;21.70;89.90
25450;DHT22;13371;52.080;5.624;2022-10-16T11:33:39;22.00;84.90
25450;DHT22;13371;52.080;5.624;2022-10-16T11:44:48;21.70;80.90
25450;DHT22;13371;52.080;5.624;2022-10-16T11:47:37;21.30;83.90
25450;DHT22;13371;52.080;5.624;2022-10-16T11:55:42;22.20;81.80
25450;DHT22;13371;52.080;5.624;2022-10-16T11:58:28;21.70;81.90
25450;DHT22;13371;52.080;5.624;2022-10-16T12:04:03;21.20;82.90
25450;DHT22;13371;52.080;5.624;2022-10-16T12:06:38;20.90;82.50
25450;DHT22;13371;52.080;5.624;2022-10-16T12:09:19;20.70;83.20
25450;DHT22;13371;52.080;5.624;2022-10-16T12:11:46;20.80;84.20
25450;DHT22;13371;52.080;5.624;2022-10-16T12:16:58;21.30;79.20
25450;DHT22;13371;52.080;5.624;2022-10-16T12:19:27;21.20;79.50
25450;DHT22;13371;52.080;5.624;2022-10-16T12:21:56;20.90;81.40
25450;DHT22;13371;52.080;5.624;2022-10-16T12:24:41;20.60;83.20
25450;DHT22;13371;52.080;5.624;2022-10-16T12:27:31;20.50;84.30
25450;DHT22;13371;52.080;5.624;2022-10-16T12:30:00;20.60;84.40
25450;DHT22;13371;52.080;5.624;2022-10-16T12:32:32;20.90;82.20
25450;DHT22;13371;52.080;5.624;2022-10-16T12:35:02;21.00;82.00
25450;DHT22;13371;52.080;5.624;2022-10-16T12:37:34;21.10;80.40
25450;DHT22;13371;52.080;5.624;2022-10-16T12:40:13;21.00;81.30
25450;DHT22;13371;52.080;5.624;2022-10-16T12:42:40;20.70;83.00
25450;DHT22;13371;52.080;5.624;2022-10-16T12:47:52;20.90;82.90
25450;DHT22;13371;52.080;5.624;2022-10-16T12:50:34;20.90;82.90
25450;DHT22;13371;52.080;5.624;2022-10-16T12:53:01;20.60;82.80
25450;DHT22;13371;52.080;5.624;2022-10-16T12:55:41;20.70;84.00
25450;DHT22;13371;52.080;5.624;2022-10-16T12:58:32;20.50;82.90
25450;DHT22;13371;52.080;5.624;2022-10-16T13:06:39;20.40;83.10
25450;DHT22;13371;52.080;5.624;2022-10-16T13:12:20;20.60;84.30
25450;DHT22;13371;52.080;5.624;2022-10-16T13:17:49;20.70;82.80
25450;DHT22;13371;52.080;5.624;2022-10-16T13:20:31;21.00;82.30
25450;DHT22;13371;52.080;5.624;2022-10-16T13:28:49;20.60;83.10
25450;DHT22;13371;52.080;5.624;2022-10-16T13:31:23;20.50;83.70
25450;DHT22;13371;52.080;5.624;2022-10-16T13:33:55;20.80;82.20
25450;DHT22;13371;52.080;5.624;2022-10-16T13:36:27;20.70;81.80
25450;DHT22;13371;52.080;5.624;2022-10-16T13:39:06;20.70;82.30
25450;DHT22;13371;52.080;5.624;2022-10-16T13:41:32;20.80;80.30
25450;DHT22;13371;52.080;5.624;2022-10-16T13:43:57;20.90;80.20
25450;DHT22;13371;52.080;5.624;2022-10-16T13:46:25;20.80;80.60
25450;DHT22;13371;52.080;5.624;2022-10-16T13:48:58;20.70;80.70
25450;DHT22;13371;52.080;5.624;2022-10-16T13:51:25;20.80;80.80
25450;DHT22;13371;52.080;5.624;2022-10-16T13:53:51;21.00;79.60
25450;DHT22;13371;52.080;5.624;2022-10-16T13:56:19;21.30;79.30
25450;DHT22;13371;52.080;5.624;2022-10-16T13:58:45;21.20;79.60
25450;DHT22;13371;52.080;5.624;2022-10-16T14:01:22;21.40;80.20
25450;DHT22;13371;52.080;5.624;2022-10-16T14:03:49;21.60;79.50
25450;DHT22;13371;52.080;5.624;2022-10-16T14:06:18;21.50;79.40
25450;DHT22;13371;52.080;5.624;2022-10-16T14:08:50;21.30;79.20
25450;DHT22;13371;52.080;5.624;2022-10-16T14:11:23;21.20;78.90
25450;DHT22;13371;52.080;5.624;2022-10-16T14:13:50;21.50;79.60
25450;DHT22;13371;52.080;5.624;2022-10-16T14:16:36;21.40;78.10
25450;DHT22;13371;52.080;5.624;2022-10-16T14:19:06;21.10;78.40
25450;DHT22;13371;52.080;5.624;2022-10-16T14:21:33;21.30;78.90
25450;DHT22;13371;52.080;5.624;2022-10-16T14:23:59;21.40;78.00
25450;DHT22;13371;52.080;5.624;2022-10-16T14:26:27;21.50;79.30
25450;DHT22;13371;52.080;5.624;2022-10-16T14:29:11;21.60;79.00
25450;DHT22;13371;52.080;5.624;2022-10-16T14:31:37;21.70;77.00
25450;DHT22;13371;52.080;5.624;2022-10-16T14:34:22;21.60;79.30
25450;DHT22;13371;52.080;5.624;2022-10-16T14:36:48;21.30;78.40
25450;DHT22;13371;52.080;5.624;2022-10-16T14:39:18;21.40;78.20
25450;DHT22;13371;52.080;5.624;2022-10-16T14:41:47;21.30;77.80
25450;DHT22;13371;52.080;5.624;2022-10-16T14:44:13;21.20;79.00
25450;DHT22;13371;52.080;5.624;2022-10-16T14:46:41;21.00;78.90
25450;DHT22;13371;52.080;5.624;2022-10-16T14:51:41;21.40;78.90
25450;DHT22;13371;52.080;5.624;2022-10-16T14:54:09;21.20;79.10
25450;DHT22;13371;52.080;5.624;2022-10-16T14:59:30;21.00;80.70
25450;DHT22;13371;52.080;5.624;2022-10-16T15:01:56;21.00;80.40
25450;DHT22;13371;52.080;5.624;2022-10-16T15:04:22;20.80;79.70
25450;DHT22;13371;52.080;5.624;2022-10-16T15:06:48;20.90;80.60
25450;DHT22;13371;52.080;5.624;2022-10-16T15:09:13;21.00;80.70
25450;DHT22;13371;52.080;5.624;2022-10-16T15:11:39;21.30;80.40
25450;DHT22;13371;52.080;5.624;2022-10-16T15:14:05;21.50;80.80
25450;DHT22;13371;52.080;5.624;2022-10-16T15:16:31;21.70;81.20
25450;DHT22;13371;52.080;5.624;2022-10-16T15:18:57;21.70;81.30
25450;DHT22;13371;52.080;5.624;2022-10-16T15:21:31;21.90;81.10
25450;DHT22;13371;52.080;5.624;2022-10-16T15:23:57;22.10;81.60
25450;DHT22;13371;52.080;5.624;2022-10-16T15:26:25;21.70;84.00
25450;DHT22;13371;52.080;5.624;2022-10-16T15:28:51;21.50;83.70
25450;DHT22;13371;52.080;5.624;2022-10-16T15:31:16;21.60;83.60
25450;DHT22;13371;52.080;5.624;2022-10-16T15:33:42;21.50;84.10
25450;DHT22;13371;52.080;5.624;2022-10-16T15:36:08;21.30;84.90
25450;DHT22;13371;52.080;5.624;2022-10-16T15:38:34;21.30;85.90
25450;DHT22;13371;52.080;5.624;2022-10-16T15:40:59;21.40;85.90
25450;DHT22;13371;52.080;5.624;2022-10-16T15:43:25;21.30;85.90
25450;DHT22;13371;52.080;5.624;2022-10-16T15:46:01;21.10;87.50
25450;DHT22;13371;52.080;5.624;2022-10-16T15:48:27;21.10;87.60
25450;DHT22;13371;52.080;5.624;2022-10-16T15:50:53;21.10;86.60
25450;DHT22;13371;52.080;5.624;2022-10-16T15:53:19;21.00;87.80
25450;DHT22;13371;52.080;5.624;2022-10-16T15:55:44;21.10;87.70
25450;DHT22;13371;52.080;5.624;2022-10-16T15:58:10;21.20;87.30
25450;DHT22;13371;52.080;5.624;2022-10-16T16:00:36;21.00;87.80
25450;DHT22;13371;52.080;5.624;2022-10-16T16:03:01;20.70;89.30
25450;DHT22;13371;52.080;5.624;2022-10-16T16:05:27;20.30;89.70
25450;DHT22;13371;52.080;5.624;2022-10-16T16:07:53;20.20;90.30
25450;DHT22;13371;52.080;5.624;2022-10-16T16:10:19;20.20;90.40
25450;DHT22;13371;52.080;5.624;2022-10-16T16:12:47;20.20;90.60
25450;DHT22;13371;52.080;5.624;2022-10-16T16:15:18;20.30;90.40
25450;DHT22;13371;52.080;5.624;2022-10-16T16:17:43;20.30;90.80
25450;DHT22;13371;52.080;5.624;2022-10-16T16:20:10;20.40;90.30
25450;DHT22;13371;52.080;5.624;2022-10-16T16:22:35;20.40;90.20
25450;DHT22;13371;52.080;5.624;2022-10-16T16:25:01;20.30;90.20
25450;DHT22;13371;52.080;5.624;2022-10-16T16:27:27;20.10;90.40
25450;DHT22;13371;52.080;5.624;2022-10-16T16:29:55;20.10;90.80
25450;DHT22;13371;52.080;5.624;2022-10-16T16:32:21;20.10;90.60
25450;DHT22;13371;52.080;5.624;2022-10-16T16:34:46;19.80;91.10
25450;DHT22;13371;52.080;5.624;2022-10-16T16:37:12;19.40;91.60
25450;DHT22;13371;52.080;5.624;2022-10-16T16:39:38;19.10;92.50
25450;DHT22;13371;52.080;5.624;2022-10-16T16:42:03;19.00;92.70
25450;DHT22;13371;52.080;5.624;2022-10-16T16:44:31;19.40;92.10
25450;DHT22;13371;52.080;5.624;2022-10-16T16:46:57;19.50;91.90
25450;DHT22;13371;52.080;5.624;2022-10-16T16:49:22;19.60;91.70
25450;DHT22;13371;52.080;5.624;2022-10-16T16:51:48;19.70;91.40
25450;DHT22;13371;52.080;5.624;2022-10-16T16:54:14;19.60;91.20
25450;DHT22;13371;52.080;5.624;2022-10-16T16:56:39;19.60;91.00
25450;DHT22;13371;52.080;5.624;2022-10-16T16:59:16;19.30;91.30
25450;DHT22;13371;52.080;5.624;2022-10-16T17:01:43;19.30;91.60
25450;DHT22;13371;52.080;5.624;2022-10-16T17:04:09;19.10;91.80
25450;DHT22;13371;52.080;5.624;2022-10-16T17:06:36;19.00;92.40
25450;DHT22;13371;52.080;5.624;2022-10-16T17:09:03;18.90;92.30
25450;DHT22;13371;52.080;5.624;2022-10-16T17:11:30;18.80;92.30
25450;DHT22;13371;52.080;5.624;2022-10-16T17:13:57;18.80;92.20